Sign-in with your pilot id or email, or register

ICAO: NSFA Name / Country: Faleolo Intl / Apia / Samoa
Latitude: -13.83 Longitude: -172.008
Total Arrivals:
Strict Standards: Non-static method AirportData::getarrflights() should not be called statically, assuming $this from incompatible context in /var/www/customers/vh-7192/web/home/phpvms/core/templates/airport_info.tpl on line 18
1
Total Departures:
Strict Standards: Non-static method AirportData::getdeptflights() should not be called statically, assuming $this from incompatible context in /var/www/customers/vh-7192/web/home/phpvms/core/templates/airport_info.tpl on line 21
1
Latest Arrival: MTA5PM (NFTF-NSFA) Tibor Berces Latest Departure: MTA5PM (NSFA-NTTB) Tibor Berces
Metar: NSFA 172100Z 31004KT 9999 FEW028 29/23 Q1015 NOSIG
More info

Charts for NSFA


NOTAM


Warning: file_get_contents(http://api.vateud.net/notams/NSFA.json): failed to open stream: Redirection limit reached, aborting in /var/www/customers/vh-7192/web/home/phpvms/core/common/NOTAMSData.class.php on line 18

Warning: Invalid argument supplied for foreach() in /var/www/customers/vh-7192/web/home/phpvms/core/common/NOTAMSData.class.php on line 22

Faleolo Intl / Apia